DLH457 KLAX-EDDF
Flight info
| Callsign | DLH457 |
|---|---|
| Flight time | N/A |
| Altitude | 37000 |
| Route | OSHNN1 BEALE Q842 WINEN KU57O KU81S KU03U ISN AMENU 55N095W/N0477F390 5830N09000W 63N080W 66N070W/M084F390 CANEL 70N050W 7030N04000W/M085F410 70N030W 6830N02000W 66N010W GUNPA/N0485F410 NORSO DOROR NORTA RIMET/N0502F310 T157 KOKEB/N0460F230 T157 KERAX KERA5A |
| Aircraft | A359/H-SDE2E3GHIJ3J4J5LM1ORWXY/LB1D1 |
Departure
| Time | 2026-04-24 07:22 |
|---|---|
| Airport | Los Angeles International Airport (KLAX) |
Arrival
| Time | N/A |
|---|---|
| Airport | Frankfurt Main Airport (EDDF) |
| Time | Latitude | Longitude | Altitude | Speed | Heading |
|---|---|---|---|---|---|
| 2026-04-24 06:59 | 33.94176 | -118.41105 | 132 ft | 0 kts | 83° |
| 2026-04-24 07:12 | 33.94174 | -118.41123 | 126 ft | 3 kts | 77° |
| 2026-04-24 07:12 | 33.94169 | -118.41146 | 127 ft | 3 kts | 68° |
| 2026-04-24 07:12 | 33.94156 | -118.41174 | 132 ft | 3 kts | 52° |
| 2026-04-24 07:12 | 33.94147 | -118.41187 | 129 ft | 3 kts | 40° |
| 2026-04-24 07:13 | 33.94131 | -118.41199 | 129 ft | 3 kts | 12° |
| 2026-04-24 07:13 | 33.94121 | -118.41201 | 129 ft | 0 kts | 353° |
| 2026-04-24 07:16 | 33.94172 | -118.41209 | 127 ft | 15 kts | 352° |
| 2026-04-24 07:16 | 33.94277 | -118.41223 | 124 ft | 16 kts | 353° |
| 2026-04-24 07:16 | 33.94386 | -118.41239 | 128 ft | 16 kts | 352° |
| 2026-04-24 07:16 | 33.94501 | -118.41258 | 129 ft | 17 kts | 352° |
| 2026-04-24 07:17 | 33.94621 | -118.41275 | 126 ft | 18 kts | 353° |
| 2026-04-24 07:17 | 33.94764 | -118.41282 | 124 ft | 20 kts | 23° |
| 2026-04-24 07:17 | 33.94808 | -118.41156 | 128 ft | 16 kts | 83° |
| 2026-04-24 07:17 | 33.94823 | -118.41016 | 129 ft | 17 kts | 83° |
| 2026-04-24 07:18 | 33.94838 | -118.40870 | 132 ft | 18 kts | 83° |
| 2026-04-24 07:18 | 33.94853 | -118.40716 | 132 ft | 19 kts | 83° |
| 2026-04-24 07:18 | 33.94881 | -118.40443 | 128 ft | 40 kts | 83° |
| 2026-04-24 07:18 | 33.94915 | -118.40118 | 124 ft | 39 kts | 83° |
| 2026-04-24 07:19 | 33.94951 | -118.39936 | 127 ft | 0 kts | 45° |
| 2026-04-24 07:19 | 33.94952 | -118.39936 | 128 ft | 2 kts | 43° |
| 2026-04-24 07:20 | 33.95045 | -118.39926 | 128 ft | 17 kts | 330° |
| 2026-04-24 07:20 | 33.95050 | -118.40028 | 123 ft | 13 kts | 238° |
| 2026-04-24 07:20 | 33.95029 | -118.40103 | 132 ft | 0 kts | 262° |
| 2026-04-24 07:21 | 33.95019 | -118.40197 | 122 ft | 38 kts | 263° |
| 2026-04-24 07:21 | 33.94961 | -118.40779 | 125 ft | 99 kts | 263° |
| 2026-04-24 07:21 | 33.94849 | -118.41838 | 129 ft | 151 kts | 263° |
| 2026-04-24 07:21 | 33.94706 | -118.43207 | 429 ft | 168 kts | 262° |
| 2026-04-24 07:22 | 33.94550 | -118.44551 | 1185 ft | 158 kts | 261° |
| 2026-04-24 07:22 | 33.94384 | -118.45826 | 1825 ft | 152 kts | 259° |
| 2026-04-24 07:22 | 33.94260 | -118.47159 | 2019 ft | 169 kts | 265° |
| 2026-04-24 07:22 | 33.94225 | -118.48635 | 2164 ft | 185 kts | 269° |
| 2026-04-24 07:23 | 33.94212 | -118.50241 | 2418 ft | 197 kts | 269° |
| 2026-04-24 07:23 | 33.94166 | -118.51953 | 2682 ft | 211 kts | 265° |
| 2026-04-24 07:23 | 33.94027 | -118.53776 | 2954 ft | 224 kts | 264° |
| 2026-04-24 07:23 | 33.93864 | -118.55702 | 3274 ft | 237 kts | 264° |
| 2026-04-24 07:24 | 33.93698 | -118.57727 | 3617 ft | 248 kts | 264° |
| 2026-04-24 07:24 | 33.93510 | -118.59825 | 4084 ft | 254 kts | 261° |
| 2026-04-24 07:24 | 33.92954 | -118.61825 | 4582 ft | 259 kts | 239° |
| 2026-04-24 07:24 | 33.91710 | -118.63392 | 5094 ft | 263 kts | 213° |
| 2026-04-24 07:25 | 33.89966 | -118.64136 | 5572 ft | 268 kts | 186° |
| 2026-04-24 07:25 | 33.88082 | -118.64104 | 6102 ft | 271 kts | 176° |
| 2026-04-24 07:25 | 33.86219 | -118.63935 | 6652 ft | 273 kts | 176° |
| 2026-04-24 07:25 | 33.84321 | -118.63624 | 7129 ft | 278 kts | 166° |
| 2026-04-24 07:26 | 33.82583 | -118.62615 | 7619 ft | 282 kts | 148° |
| 2026-04-24 07:26 | 33.80948 | -118.61266 | 8106 ft | 286 kts | 147° |
| 2026-04-24 07:26 | 33.79294 | -118.59893 | 8592 ft | 290 kts | 148° |
| 2026-04-24 07:26 | 33.77624 | -118.58521 | 9090 ft | 293 kts | 148° |
| 2026-04-24 07:27 | 33.75926 | -118.57134 | 9571 ft | 297 kts | 149° |
| 2026-04-24 07:27 | 33.74270 | -118.55625 | 10058 ft | 303 kts | 139° |
| 2026-04-24 07:27 | 33.72969 | -118.53582 | 10294 ft | 319 kts | 117° |
| 2026-04-24 07:27 | 33.72470 | -118.50940 | 10477 ft | 333 kts | 88° |
| 2026-04-24 07:28 | 33.73045 | -118.48254 | 10682 ft | 341 kts | 59° |